sensor_id;sensor_type;location;lat;lon;timestamp;P1;durP1;ratioP1;P2;durP2;ratioP2
24409;SDS011;12543;53.364;-1.504;2022-08-16T00:01:19;2.45;;;1.73;;
24409;SDS011;12543;53.364;-1.504;2022-08-16T00:03:50;2.00;;;1.70;;
24409;SDS011;12543;53.364;-1.504;2022-08-16T00:06:19;1.92;;;1.83;;
24409;SDS011;12543;53.364;-1.504;2022-08-16T00:08:47;1.77;;;1.67;;
24409;SDS011;12543;53.364;-1.504;2022-08-16T00:11:17;2.10;;;1.70;;
24409;SDS011;12543;53.364;-1.504;2022-08-16T00:13:47;1.83;;;1.73;;
24409;SDS011;12543;53.364;-1.504;2022-08-16T00:16:21;1.70;;;1.23;;
24409;SDS011;12543;53.364;-1.504;2022-08-16T00:19:10;1.70;;;1.60;;
24409;SDS011;12543;53.364;-1.504;2022-08-16T00:21:39;1.42;;;1.33;;
24409;SDS011;12543;53.364;-1.504;2022-08-16T00:24:08;1.50;;;1.40;;
24409;SDS011;12543;53.364;-1.504;2022-08-16T00:26:38;1.70;;;1.50;;
24409;SDS011;12543;53.364;-1.504;2022-08-16T00:29:12;1.60;;;1.50;;
24409;SDS011;12543;53.364;-1.504;2022-08-16T00:31:42;1.63;;;1.52;;
24409;SDS011;12543;53.364;-1.504;2022-08-16T00:34:26;1.90;;;1.50;;
24409;SDS011;12543;53.364;-1.504;2022-08-16T00:37:12;2.00;;;1.73;;
24409;SDS011;12543;53.364;-1.504;2022-08-16T00:39:43;3.85;;;1.83;;
24409;SDS011;12543;53.364;-1.504;2022-08-16T00:42:12;2.05;;;1.85;;
24409;SDS011;12543;53.364;-1.504;2022-08-16T00:48:05;2.25;;;2.05;;
24409;SDS011;12543;53.364;-1.504;2022-08-16T00:50:53;1.70;;;1.60;;
24409;SDS011;12543;53.364;-1.504;2022-08-16T00:53:22;1.92;;;1.73;;
24409;SDS011;12543;53.364;-1.504;2022-08-16T00:55:51;1.67;;;1.52;;
24409;SDS011;12543;53.364;-1.504;2022-08-16T00:58:22;1.60;;;1.50;;
24409;SDS011;12543;53.364;-1.504;2022-08-16T01:01:00;1.95;;;1.60;;
24409;SDS011;12543;53.364;-1.504;2022-08-16T01:03:28;1.47;;;1.37;;
24409;SDS011;12543;53.364;-1.504;2022-08-16T01:06:01;2.35;;;1.30;;
24409;SDS011;12543;53.364;-1.504;2022-08-16T01:08:51;1.95;;;1.77;;
24409;SDS011;12543;53.364;-1.504;2022-08-16T01:11:25;2.42;;;1.70;;
24409;SDS011;12543;53.364;-1.504;2022-08-16T01:13:59;1.80;;;1.70;;
24409;SDS011;12543;53.364;-1.504;2022-08-16T01:16:34;1.50;;;1.40;;
24409;SDS011;12543;53.364;-1.504;2022-08-16T01:19:08;2.38;;;1.50;;
24409;SDS011;12543;53.364;-1.504;2022-08-16T01:27:53;1.63;;;1.52;;
24409;SDS011;12543;53.364;-1.504;2022-08-16T01:30:09;1.90;;;1.80;;
24409;SDS011;12543;53.364;-1.504;2022-08-16T01:32:47;1.92;;;1.80;;
24409;SDS011;12543;53.364;-1.504;2022-08-16T01:38:16;1.63;;;1.52;;
24409;SDS011;12543;53.364;-1.504;2022-08-16T01:40:48;2.00;;;1.90;;
24409;SDS011;12543;53.364;-1.504;2022-08-16T01:43:16;1.70;;;1.60;;
24409;SDS011;12543;53.364;-1.504;2022-08-16T01:45:44;2.55;;;1.70;;
24409;SDS011;12543;53.364;-1.504;2022-08-16T01:48:23;1.90;;;1.73;;
24409;SDS011;12543;53.364;-1.504;2022-08-16T01:50:53;1.80;;;1.70;;
24409;SDS011;12543;53.364;-1.504;2022-08-16T01:56:15;1.70;;;1.60;;
24409;SDS011;12543;53.364;-1.504;2022-08-16T01:58:53;2.05;;;1.70;;
24409;SDS011;12543;53.364;-1.504;2022-08-16T02:01:23;1.95;;;1.85;;
24409;SDS011;12543;53.364;-1.504;2022-08-16T02:03:53;2.10;;;1.90;;
24409;SDS011;12543;53.364;-1.504;2022-08-16T02:06:36;1.88;;;1.77;;
24409;SDS011;12543;53.364;-1.504;2022-08-16T02:09:14;1.80;;;1.70;;
24409;SDS011;12543;53.364;-1.504;2022-08-16T02:11:46;1.52;;;1.42;;
24409;SDS011;12543;53.364;-1.504;2022-08-16T02:14:20;1.70;;;1.60;;
24409;SDS011;12543;53.364;-1.504;2022-08-16T02:16:54;1.88;;;1.67;;
24409;SDS011;12543;53.364;-1.504;2022-08-16T02:19:23;1.88;;;1.75;;
24409;SDS011;12543;53.364;-1.504;2022-08-16T02:22:13;2.05;;;1.85;;
24409;SDS011;12543;53.364;-1.504;2022-08-16T02:25:12;1.70;;;1.60;;
24409;SDS011;12543;53.364;-1.504;2022-08-16T02:30:19;1.83;;;1.70;;
24409;SDS011;12543;53.364;-1.504;2022-08-16T02:33:08;2.00;;;1.80;;
24409;SDS011;12543;53.364;-1.504;2022-08-16T02:35:37;1.70;;;1.60;;
24409;SDS011;12543;53.364;-1.504;2022-08-16T02:38:21;1.67;;;1.58;;
24409;SDS011;12543;53.364;-1.504;2022-08-16T02:40:49;1.98;;;1.88;;
24409;SDS011;12543;53.364;-1.504;2022-08-16T02:43:20;2.10;;;1.85;;
24409;SDS011;12543;53.364;-1.504;2022-08-16T02:45:54;2.08;;;1.98;;
24409;SDS011;12543;53.364;-1.504;2022-08-16T02:48:22;2.30;;;2.10;;
24409;SDS011;12543;53.364;-1.504;2022-08-16T02:50:57;3.28;;;1.92;;
24409;SDS011;12543;53.364;-1.504;2022-08-16T02:53:36;2.70;;;2.50;;
24409;SDS011;12543;53.364;-1.504;2022-08-16T02:56:10;2.40;;;2.20;;
24409;SDS011;12543;53.364;-1.504;2022-08-16T02:58:44;2.53;;;2.30;;
24409;SDS011;12543;53.364;-1.504;2022-08-16T03:01:14;3.58;;;3.08;;
24409;SDS011;12543;53.364;-1.504;2022-08-16T03:04:06;2.92;;;2.65;;
24409;SDS011;12543;53.364;-1.504;2022-08-16T03:06:54;2.95;;;2.75;;
24409;SDS011;12543;53.364;-1.504;2022-08-16T03:09:44;3.58;;;3.05;;
24409;SDS011;12543;53.364;-1.504;2022-08-16T03:12:16;3.28;;;2.97;;
24409;SDS011;12543;53.364;-1.504;2022-08-16T03:14:45;3.00;;;2.70;;
24409;SDS011;12543;53.364;-1.504;2022-08-16T03:17:15;3.45;;;3.15;;
24409;SDS011;12543;53.364;-1.504;2022-08-16T03:19:44;3.35;;;3.05;;
24409;SDS011;12543;53.364;-1.504;2022-08-16T03:22:24;3.63;;;3.33;;
24409;SDS011;12543;53.364;-1.504;2022-08-16T03:25:03;3.22;;;3.03;;
24409;SDS011;12543;53.364;-1.504;2022-08-16T03:27:34;3.60;;;3.30;;
24409;SDS011;12543;53.364;-1.504;2022-08-16T03:30:13;3.50;;;3.20;;
24409;SDS011;12543;53.364;-1.504;2022-08-16T03:32:53;3.00;;;2.80;;
24409;SDS011;12543;53.364;-1.504;2022-08-16T03:35:25;3.70;;;3.40;;
24409;SDS011;12543;53.364;-1.504;2022-08-16T03:38:00;4.10;;;3.55;;
24409;SDS011;12543;53.364;-1.504;2022-08-16T03:40:41;3.75;;;3.45;;
24409;SDS011;12543;53.364;-1.504;2022-08-16T03:43:09;3.47;;;3.20;;
24409;SDS011;12543;53.364;-1.504;2022-08-16T03:45:49;3.42;;;3.13;;
24409;SDS011;12543;53.364;-1.504;2022-08-16T03:48:26;4.57;;;4.18;;
24409;SDS011;12543;53.364;-1.504;2022-08-16T03:51:11;4.40;;;4.00;;
24409;SDS011;12543;53.364;-1.504;2022-08-16T03:53:45;4.80;;;3.97;;
24409;SDS011;12543;53.364;-1.504;2022-08-16T03:56:26;5.05;;;4.55;;
24409;SDS011;12543;53.364;-1.504;2022-08-16T03:58:57;4.25;;;3.85;;
24409;SDS011;12543;53.364;-1.504;2022-08-16T04:01:30;4.20;;;3.80;;
24409;SDS011;12543;53.364;-1.504;2022-08-16T04:03:59;4.35;;;3.95;;
24409;SDS011;12543;53.364;-1.504;2022-08-16T04:06:28;4.25;;;3.92;;
24409;SDS011;12543;53.364;-1.504;2022-08-16T04:08:55;3.83;;;3.53;;
24409;SDS011;12543;53.364;-1.504;2022-08-16T04:11:22;4.45;;;4.07;;
24409;SDS011;12543;53.364;-1.504;2022-08-16T04:13:50;3.92;;;3.60;;
24409;SDS011;12543;53.364;-1.504;2022-08-16T04:16:38;3.78;;;3.47;;
24409;SDS011;12543;53.364;-1.504;2022-08-16T04:19:40;3.92;;;3.60;;
24409;SDS011;12543;53.364;-1.504;2022-08-16T04:22:14;3.90;;;3.60;;
24409;SDS011;12543;53.364;-1.504;2022-08-16T04:24:49;3.97;;;3.67;;
24409;SDS011;12543;53.364;-1.504;2022-08-16T04:27:24;3.88;;;3.55;;
24409;SDS011;12543;53.364;-1.504;2022-08-16T04:29:58;4.10;;;3.70;;
24409;SDS011;12543;53.364;-1.504;2022-08-16T04:32:34;3.95;;;3.55;;
24409;SDS011;12543;53.364;-1.504;2022-08-16T04:35:05;3.60;;;3.30;;
24409;SDS011;12543;53.364;-1.504;2022-08-16T04:37:45;4.00;;;3.70;;
24409;SDS011;12543;53.364;-1.504;2022-08-16T04:40:23;4.35;;;3.95;;
24409;SDS011;12543;53.364;-1.504;2022-08-16T04:42:54;4.15;;;3.15;;
24409;SDS011;12543;53.364;-1.504;2022-08-16T04:45:24;3.78;;;3.47;;
24409;SDS011;12543;53.364;-1.504;2022-08-16T04:48:09;3.33;;;3.13;;
24409;SDS011;12543;53.364;-1.504;2022-08-16T04:50:55;3.28;;;3.08;;
24409;SDS011;12543;53.364;-1.504;2022-08-16T04:53:35;2.90;;;2.65;;
24409;SDS011;12543;53.364;-1.504;2022-08-16T04:56:07;3.33;;;3.03;;
24409;SDS011;12543;53.364;-1.504;2022-08-16T04:58:38;3.70;;;3.40;;
24409;SDS011;12543;53.364;-1.504;2022-08-16T05:01:13;3.60;;;3.00;;
24409;SDS011;12543;53.364;-1.504;2022-08-16T05:03:42;3.17;;;2.88;;
24409;SDS011;12543;53.364;-1.504;2022-08-16T05:06:39;2.90;;;2.70;;
24409;SDS011;12543;53.364;-1.504;2022-08-16T05:11:56;2.83;;;2.63;;
24409;SDS011;12543;53.364;-1.504;2022-08-16T05:14:27;2.88;;;2.67;;
24409;SDS011;12543;53.364;-1.504;2022-08-16T05:17:17;2.88;;;2.60;;
24409;SDS011;12543;53.364;-1.504;2022-08-16T05:19:45;2.00;;;1.90;;
24409;SDS011;12543;53.364;-1.504;2022-08-16T05:22:35;2.72;;;2.53;;
24409;SDS011;12543;53.364;-1.504;2022-08-16T05:25:05;2.80;;;2.60;;
24409;SDS011;12543;53.364;-1.504;2022-08-16T05:27:38;2.67;;;2.47;;
24409;SDS011;12543;53.364;-1.504;2022-08-16T05:30:12;2.80;;;2.60;;
24409;SDS011;12543;53.364;-1.504;2022-08-16T05:33:01;2.55;;;2.35;;
24409;SDS011;12543;53.364;-1.504;2022-08-16T05:35:29;2.72;;;2.53;;
24409;SDS011;12543;53.364;-1.504;2022-08-16T05:38:07;2.63;;;2.35;;
24409;SDS011;12543;53.364;-1.504;2022-08-16T05:40:57;2.58;;;2.40;;
24409;SDS011;12543;53.364;-1.504;2022-08-16T05:43:32;2.45;;;2.25;;
24409;SDS011;12543;53.364;-1.504;2022-08-16T05:46:16;2.55;;;2.35;;
24409;SDS011;12543;53.364;-1.504;2022-08-16T05:49:04;2.60;;;2.40;;
24409;SDS011;12543;53.364;-1.504;2022-08-16T05:51:36;2.55;;;2.35;;
24409;SDS011;12543;53.364;-1.504;2022-08-16T05:54:07;2.33;;;2.20;;
24409;SDS011;12543;53.364;-1.504;2022-08-16T05:56:39;2.45;;;2.25;;
24409;SDS011;12543;53.364;-1.504;2022-08-16T05:59:08;2.88;;;2.67;;
24409;SDS011;12543;53.364;-1.504;2022-08-16T06:01:36;3.20;;;3.00;;
24409;SDS011;12543;53.364;-1.504;2022-08-16T06:04:06;2.90;;;2.70;;
24409;SDS011;12543;53.364;-1.504;2022-08-16T06:06:45;2.78;;;2.58;;
24409;SDS011;12543;53.364;-1.504;2022-08-16T06:09:25;2.42;;;2.33;;
24409;SDS011;12543;53.364;-1.504;2022-08-16T06:12:09;2.88;;;2.60;;
24409;SDS011;12543;53.364;-1.504;2022-08-16T06:14:57;2.40;;;2.20;;
24409;SDS011;12543;53.364;-1.504;2022-08-16T06:17:33;2.38;;;2.20;;
24409;SDS011;12543;53.364;-1.504;2022-08-16T06:20:17;2.60;;;2.40;;
24409;SDS011;12543;53.364;-1.504;2022-08-16T06:23:05;2.08;;;1.98;;
24409;SDS011;12543;53.364;-1.504;2022-08-16T06:25:54;1.98;;;1.88;;
24409;SDS011;12543;53.364;-1.504;2022-08-16T06:28:26;1.77;;;1.67;;
24409;SDS011;12543;53.364;-1.504;2022-08-16T06:31:04;2.33;;;2.20;;
24409;SDS011;12543;53.364;-1.504;2022-08-16T06:33:38;2.50;;;2.30;;
24409;SDS011;12543;53.364;-1.504;2022-08-16T06:36:07;2.35;;;2.15;;
24409;SDS011;12543;53.364;-1.504;2022-08-16T06:38:37;2.10;;;1.90;;
24409;SDS011;12543;53.364;-1.504;2022-08-16T06:41:30;2.30;;;2.20;;
24409;SDS011;12543;53.364;-1.504;2022-08-16T06:44:16;3.03;;;2.83;;
24409;SDS011;12543;53.364;-1.504;2022-08-16T06:46:51;2.88;;;2.67;;
24409;SDS011;12543;53.364;-1.504;2022-08-16T06:49:19;2.97;;;2.78;;
24409;SDS011;12543;53.364;-1.504;2022-08-16T06:51:46;2.63;;;2.43;;
24409;SDS011;12543;53.364;-1.504;2022-08-16T06:54:20;2.63;;;2.42;;
24409;SDS011;12543;53.364;-1.504;2022-08-16T06:56:47;2.65;;;2.45;;
24409;SDS011;12543;53.364;-1.504;2022-08-16T06:59:20;2.67;;;2.47;;
24409;SDS011;12543;53.364;-1.504;2022-08-16T07:01:56;2.38;;;2.28;;
24409;SDS011;12543;53.364;-1.504;2022-08-16T07:04:27;2.40;;;2.20;;
24409;SDS011;12543;53.364;-1.504;2022-08-16T07:07:01;2.95;;;2.65;;
24409;SDS011;12543;53.364;-1.504;2022-08-16T07:09:36;2.58;;;2.38;;
24409;SDS011;12543;53.364;-1.504;2022-08-16T07:12:03;1.97;;;1.87;;
24409;SDS011;12543;53.364;-1.504;2022-08-16T07:14:34;2.65;;;2.45;;
24409;SDS011;12543;53.364;-1.504;2022-08-16T07:17:03;1.92;;;1.83;;
24409;SDS011;12543;53.364;-1.504;2022-08-16T07:19:41;2.78;;;2.10;;
24409;SDS011;12543;53.364;-1.504;2022-08-16T07:22:39;2.58;;;2.15;;
24409;SDS011;12543;53.364;-1.504;2022-08-16T07:25:16;2.47;;;2.20;;
24409;SDS011;12543;53.364;-1.504;2022-08-16T07:27:44;2.60;;;2.00;;
24409;SDS011;12543;53.364;-1.504;2022-08-16T07:30:15;2.03;;;1.92;;
24409;SDS011;12543;53.364;-1.504;2022-08-16T07:33:05;2.40;;;2.20;;
24409;SDS011;12543;53.364;-1.504;2022-08-16T07:35:35;2.08;;;1.98;;
24409;SDS011;12543;53.364;-1.504;2022-08-16T07:38:15;3.97;;;2.35;;
24409;SDS011;12543;53.364;-1.504;2022-08-16T07:40:56;2.38;;;2.17;;
24409;SDS011;12543;53.364;-1.504;2022-08-16T07:43:27;2.47;;;2.28;;
24409;SDS011;12543;53.364;-1.504;2022-08-16T07:45:58;2.13;;;2.03;;
24409;SDS011;12543;53.364;-1.504;2022-08-16T07:48:28;2.58;;;2.38;;
24409;SDS011;12543;53.364;-1.504;2022-08-16T07:50:56;2.25;;;2.05;;
24409;SDS011;12543;53.364;-1.504;2022-08-16T07:53:29;2.30;;;2.10;;
24409;SDS011;12543;53.364;-1.504;2022-08-16T07:56:08;2.22;;;2.08;;
24409;SDS011;12543;53.364;-1.504;2022-08-16T07:58:38;1.80;;;1.70;;
24409;SDS011;12543;53.364;-1.504;2022-08-16T08:01:12;2.05;;;1.60;;
24409;SDS011;12543;53.364;-1.504;2022-08-16T08:03:45;1.52;;;1.42;;
24409;SDS011;12543;53.364;-1.504;2022-08-16T08:06:20;2.45;;;1.90;;
24409;SDS011;12543;53.364;-1.504;2022-08-16T08:08:52;1.73;;;1.63;;
24409;SDS011;12543;53.364;-1.504;2022-08-16T08:11:25;1.50;;;1.40;;
24409;SDS011;12543;53.364;-1.504;2022-08-16T08:13:56;1.60;;;1.50;;
24409;SDS011;12543;53.364;-1.504;2022-08-16T08:16:36;2.20;;;2.00;;
24409;SDS011;12543;53.364;-1.504;2022-08-16T08:19:17;1.60;;;1.50;;
24409;SDS011;12543;53.364;-1.504;2022-08-16T08:21:47;2.05;;;1.40;;
24409;SDS011;12543;53.364;-1.504;2022-08-16T08:24:42;1.80;;;1.70;;
24409;SDS011;12543;53.364;-1.504;2022-08-16T08:27:11;1.60;;;1.50;;
24409;SDS011;12543;53.364;-1.504;2022-08-16T08:32:38;1.90;;;1.70;;
24409;SDS011;12543;53.364;-1.504;2022-08-16T08:35:26;1.75;;;1.65;;
24409;SDS011;12543;53.364;-1.504;2022-08-16T08:37:55;1.50;;;1.40;;
24409;SDS011;12543;53.364;-1.504;2022-08-16T08:40:25;2.15;;;1.77;;
24409;SDS011;12543;53.364;-1.504;2022-08-16T08:42:55;2.45;;;1.70;;
24409;SDS011;12543;53.364;-1.504;2022-08-16T08:45:40;1.52;;;1.42;;
24409;SDS011;12543;53.364;-1.504;2022-08-16T08:48:15;1.63;;;1.52;;
24409;SDS011;12543;53.364;-1.504;2022-08-16T08:51:01;1.73;;;1.63;;
24409;SDS011;12543;53.364;-1.504;2022-08-16T08:53:32;2.17;;;1.52;;
24409;SDS011;12543;53.364;-1.504;2022-08-16T08:56:00;1.87;;;1.70;;
24409;SDS011;12543;53.364;-1.504;2022-08-16T08:58:48;1.80;;;1.70;;
24409;SDS011;12543;53.364;-1.504;2022-08-16T09:01:34;1.80;;;1.70;;
24409;SDS011;12543;53.364;-1.504;2022-08-16T09:04:22;2.75;;;1.85;;
24409;SDS011;12543;53.364;-1.504;2022-08-16T09:06:51;2.10;;;1.90;;
24409;SDS011;12543;53.364;-1.504;2022-08-16T09:09:20;2.08;;;1.95;;
24409;SDS011;12543;53.364;-1.504;2022-08-16T09:11:53;1.67;;;1.58;;
24409;SDS011;12543;53.364;-1.504;2022-08-16T09:14:42;1.63;;;1.52;;
24409;SDS011;12543;53.364;-1.504;2022-08-16T09:17:18;1.65;;;1.55;;
24409;SDS011;12543;53.364;-1.504;2022-08-16T09:20:07;4.40;;;1.80;;
24409;SDS011;12543;53.364;-1.504;2022-08-16T09:22:38;1.95;;;1.70;;
24409;SDS011;12543;53.364;-1.504;2022-08-16T09:25:07;1.63;;;1.50;;
24409;SDS011;12543;53.364;-1.504;2022-08-16T09:27:38;1.60;;;1.50;;
24409;SDS011;12543;53.364;-1.504;2022-08-16T09:30:25;2.45;;;1.65;;
24409;SDS011;12543;53.364;-1.504;2022-08-16T09:33:00;1.67;;;1.58;;
24409;SDS011;12543;53.364;-1.504;2022-08-16T09:35:32;1.70;;;1.60;;
24409;SDS011;12543;53.364;-1.504;2022-08-16T09:38:04;2.10;;;1.90;;
24409;SDS011;12543;53.364;-1.504;2022-08-16T09:40:34;1.80;;;1.70;;
24409;SDS011;12543;53.364;-1.504;2022-08-16T09:43:09;1.65;;;1.55;;
24409;SDS011;12543;53.364;-1.504;2022-08-16T09:45:59;1.90;;;1.77;;
24409;SDS011;12543;53.364;-1.504;2022-08-16T09:48:28;1.67;;;1.58;;
24409;SDS011;12543;53.364;-1.504;2022-08-16T09:51:10;2.22;;;1.98;;
24409;SDS011;12543;53.364;-1.504;2022-08-16T09:53:39;1.88;;;1.50;;
24409;SDS011;12543;53.364;-1.504;2022-08-16T09:56:25;1.70;;;1.58;;
24409;SDS011;12543;53.364;-1.504;2022-08-16T09:58:58;2.15;;;1.70;;
24409;SDS011;12543;53.364;-1.504;2022-08-16T10:01:30;1.73;;;1.45;;
24409;SDS011;12543;53.364;-1.504;2022-08-16T10:06:28;2.03;;;1.83;;
24409;SDS011;12543;53.364;-1.504;2022-08-16T10:09:06;1.85;;;1.50;;
24409;SDS011;12543;53.364;-1.504;2022-08-16T10:11:36;1.75;;;1.45;;
24409;SDS011;12543;53.364;-1.504;2022-08-16T10:14:42;1.52;;;1.30;;
24409;SDS011;12543;53.364;-1.504;2022-08-16T10:17:11;2.38;;;1.23;;
24409;SDS011;12543;53.364;-1.504;2022-08-16T10:19:40;1.40;;;1.30;;
24409;SDS011;12543;53.364;-1.504;2022-08-16T10:22:08;1.80;;;1.45;;
24409;SDS011;12543;53.364;-1.504;2022-08-16T10:24:38;1.10;;;1.00;;
24409;SDS011;12543;53.364;-1.504;2022-08-16T10:27:25;1.33;;;1.08;;
24409;SDS011;12543;53.364;-1.504;2022-08-16T10:30:13;1.77;;;1.33;;
24409;SDS011;12543;53.364;-1.504;2022-08-16T10:32:51;2.13;;;1.40;;
24409;SDS011;12543;53.364;-1.504;2022-08-16T10:35:19;1.48;;;1.38;;
24409;SDS011;12543;53.364;-1.504;2022-08-16T10:37:48;3.13;;;1.77;;
24409;SDS011;12543;53.364;-1.504;2022-08-16T10:40:18;1.38;;;1.27;;
24409;SDS011;12543;53.364;-1.504;2022-08-16T10:42:55;1.40;;;1.30;;
24409;SDS011;12543;53.364;-1.504;2022-08-16T10:45:26;1.30;;;1.20;;
24409;SDS011;12543;53.364;-1.504;2022-08-16T10:48:03;2.20;;;1.58;;
24409;SDS011;12543;53.364;-1.504;2022-08-16T10:50:54;1.40;;;1.27;;
24409;SDS011;12543;53.364;-1.504;2022-08-16T10:53:27;1.38;;;1.25;;
24409;SDS011;12543;53.364;-1.504;2022-08-16T10:55:59;1.77;;;1.25;;
24409;SDS011;12543;53.364;-1.504;2022-08-16T10:58:30;1.95;;;1.30;;
24409;SDS011;12543;53.364;-1.504;2022-08-16T11:01:00;2.72;;;1.38;;
24409;SDS011;12543;53.364;-1.504;2022-08-16T11:03:48;1.75;;;1.60;;
24409;SDS011;12543;53.364;-1.504;2022-08-16T11:06:22;1.50;;;1.40;;
24409;SDS011;12543;53.364;-1.504;2022-08-16T11:08:53;1.60;;;1.50;;
24409;SDS011;12543;53.364;-1.504;2022-08-16T11:11:41;1.50;;;1.40;;
24409;SDS011;12543;53.364;-1.504;2022-08-16T11:14:28;1.20;;;1.20;;
24409;SDS011;12543;53.364;-1.504;2022-08-16T11:16:57;1.38;;;1.30;;
24409;SDS011;12543;53.364;-1.504;2022-08-16T11:19:34;1.20;;;1.10;;
24409;SDS011;12543;53.364;-1.504;2022-08-16T11:22:22;1.77;;;1.02;;
24409;SDS011;12543;53.364;-1.504;2022-08-16T11:25:09;1.33;;;1.23;;
24409;SDS011;12543;53.364;-1.504;2022-08-16T11:27:58;1.40;;;1.30;;
24409;SDS011;12543;53.364;-1.504;2022-08-16T11:30:28;1.20;;;1.10;;
24409;SDS011;12543;53.364;-1.504;2022-08-16T11:33:05;1.30;;;1.20;;
24409;SDS011;12543;53.364;-1.504;2022-08-16T11:35:33;1.10;;;1.10;;
24409;SDS011;12543;53.364;-1.504;2022-08-16T11:38:11;1.20;;;1.10;;
24409;SDS011;12543;53.364;-1.504;2022-08-16T11:41:03;1.33;;;1.00;;
24409;SDS011;12543;53.364;-1.504;2022-08-16T11:43:33;1.38;;;1.27;;
24409;SDS011;12543;53.364;-1.504;2022-08-16T11:46:06;1.48;;;1.38;;
24409;SDS011;12543;53.364;-1.504;2022-08-16T11:49:00;1.10;;;1.10;;
24409;SDS011;12543;53.364;-1.504;2022-08-16T11:51:27;1.10;;;1.00;;
24409;SDS011;12543;53.364;-1.504;2022-08-16T11:53:54;1.25;;;1.15;;
24409;SDS011;12543;53.364;-1.504;2022-08-16T11:56:22;1.40;;;1.30;;
24409;SDS011;12543;53.364;-1.504;2022-08-16T12:01:38;1.20;;;1.10;;
24409;SDS011;12543;53.364;-1.504;2022-08-16T12:04:21;1.23;;;1.13;;
24409;SDS011;12543;53.364;-1.504;2022-08-16T12:06:48;1.48;;;1.08;;
24409;SDS011;12543;53.364;-1.504;2022-08-16T12:09:19;1.40;;;1.30;;
24409;SDS011;12543;53.364;-1.504;2022-08-16T12:11:47;1.20;;;1.10;;
24409;SDS011;12543;53.364;-1.504;2022-08-16T12:14:18;1.20;;;1.20;;
24409;SDS011;12543;53.364;-1.504;2022-08-16T12:16:49;1.58;;;1.20;;
24409;SDS011;12543;53.364;-1.504;2022-08-16T12:19:21;1.30;;;1.20;;
24409;SDS011;12543;53.364;-1.504;2022-08-16T12:22:02;1.45;;;1.23;;
24409;SDS011;12543;53.364;-1.504;2022-08-16T12:24:44;1.25;;;1.10;;
24409;SDS011;12543;53.364;-1.504;2022-08-16T12:27:18;1.13;;;1.05;;
24409;SDS011;12543;53.364;-1.504;2022-08-16T12:29:52;1.55;;;1.40;;
24409;SDS011;12543;53.364;-1.504;2022-08-16T12:32:24;1.38;;;1.10;;
24409;SDS011;12543;53.364;-1.504;2022-08-16T12:35:09;1.35;;;1.25;;
24409;SDS011;12543;53.364;-1.504;2022-08-16T12:37:39;1.58;;;1.23;;
24409;SDS011;12543;53.364;-1.504;2022-08-16T12:40:08;1.50;;;1.20;;
24409;SDS011;12543;53.364;-1.504;2022-08-16T12:42:50;1.92;;;1.13;;
24409;SDS011;12543;53.364;-1.504;2022-08-16T12:45:24;2.00;;;1.20;;
24409;SDS011;12543;53.364;-1.504;2022-08-16T12:47:53;1.38;;;1.27;;
24409;SDS011;12543;53.364;-1.504;2022-08-16T12:51:00;1.58;;;1.20;;
24409;SDS011;12543;53.364;-1.504;2022-08-16T12:53:36;1.65;;;1.40;;
24409;SDS011;12543;53.364;-1.504;2022-08-16T12:56:05;1.35;;;1.20;;
24409;SDS011;12543;53.364;-1.504;2022-08-16T12:58:39;1.10;;;1.00;;
24409;SDS011;12543;53.364;-1.504;2022-08-16T13:01:20;1.42;;;1.02;;
24409;SDS011;12543;53.364;-1.504;2022-08-16T13:03:55;2.15;;;1.30;;
24409;SDS011;12543;53.364;-1.504;2022-08-16T13:06:44;1.80;;;1.20;;
24409;SDS011;12543;53.364;-1.504;2022-08-16T13:09:13;1.30;;;1.20;;
24409;SDS011;12543;53.364;-1.504;2022-08-16T13:12:03;1.60;;;1.20;;
24409;SDS011;12543;53.364;-1.504;2022-08-16T13:14:41;1.17;;;1.08;;
24409;SDS011;12543;53.364;-1.504;2022-08-16T13:17:11;1.00;;;1.00;;
24409;SDS011;12543;53.364;-1.504;2022-08-16T13:19:47;1.50;;;1.15;;
24409;SDS011;12543;53.364;-1.504;2022-08-16T13:22:35;1.55;;;1.00;;
24409;SDS011;12543;53.364;-1.504;2022-08-16T13:25:10;1.23;;;1.10;;
24409;SDS011;12543;53.364;-1.504;2022-08-16T13:27:47;2.03;;;1.20;;
24409;SDS011;12543;53.364;-1.504;2022-08-16T13:30:31;1.08;;;0.98;;
24409;SDS011;12543;53.364;-1.504;2022-08-16T13:33:08;2.13;;;1.48;;
24409;SDS011;12543;53.364;-1.504;2022-08-16T13:35:45;1.25;;;1.10;;
24409;SDS011;12543;53.364;-1.504;2022-08-16T13:38:25;2.05;;;1.13;;
24409;SDS011;12543;53.364;-1.504;2022-08-16T13:41:03;1.10;;;0.85;;
24409;SDS011;12543;53.364;-1.504;2022-08-16T13:43:34;1.33;;;1.23;;
24409;SDS011;12543;53.364;-1.504;2022-08-16T13:46:03;2.38;;;1.25;;
24409;SDS011;12543;53.364;-1.504;2022-08-16T13:48:34;1.98;;;1.10;;
24409;SDS011;12543;53.364;-1.504;2022-08-16T13:51:10;2.15;;;0.90;;
24409;SDS011;12543;53.364;-1.504;2022-08-16T13:53:46;1.13;;;1.02;;
24409;SDS011;12543;53.364;-1.504;2022-08-16T13:56:25;1.45;;;1.00;;
24409;SDS011;12543;53.364;-1.504;2022-08-16T13:59:04;1.02;;;0.90;;
24409;SDS011;12543;53.364;-1.504;2022-08-16T14:01:47;2.30;;;1.42;;
24409;SDS011;12543;53.364;-1.504;2022-08-16T14:04:28;2.10;;;1.10;;
24409;SDS011;12543;53.364;-1.504;2022-08-16T14:06:58;1.40;;;1.10;;
24409;SDS011;12543;53.364;-1.504;2022-08-16T14:09:27;1.88;;;1.10;;
24409;SDS011;12543;53.364;-1.504;2022-08-16T14:11:58;1.63;;;1.00;;
24409;SDS011;12543;53.364;-1.504;2022-08-16T14:14:34;1.50;;;1.38;;
24409;SDS011;12543;53.364;-1.504;2022-08-16T14:20:44;1.30;;;1.20;;
24409;SDS011;12543;53.364;-1.504;2022-08-16T14:23:14;3.30;;;1.20;;
24409;SDS011;12543;53.364;-1.504;2022-08-16T14:25:48;1.25;;;1.15;;
24409;SDS011;12543;53.364;-1.504;2022-08-16T14:28:22;1.35;;;1.10;;
24409;SDS011;12543;53.364;-1.504;2022-08-16T14:30:51;1.50;;;1.40;;
24409;SDS011;12543;53.364;-1.504;2022-08-16T14:33:19;1.48;;;1.27;;
24409;SDS011;12543;53.364;-1.504;2022-08-16T14:35:47;2.17;;;1.30;;
24409;SDS011;12543;53.364;-1.504;2022-08-16T14:38:16;1.48;;;1.38;;
24409;SDS011;12543;53.364;-1.504;2022-08-16T14:40:49;1.83;;;1.10;;
24409;SDS011;12543;53.364;-1.504;2022-08-16T14:43:21;1.80;;;1.35;;
24409;SDS011;12543;53.364;-1.504;2022-08-16T14:45:50;1.65;;;1.35;;
24409;SDS011;12543;53.364;-1.504;2022-08-16T14:48:20;1.38;;;1.10;;
24409;SDS011;12543;53.364;-1.504;2022-08-16T14:50:52;2.28;;;1.30;;
24409;SDS011;12543;53.364;-1.504;2022-08-16T14:53:21;1.40;;;1.10;;
24409;SDS011;12543;53.364;-1.504;2022-08-16T14:55:49;1.58;;;1.10;;
24409;SDS011;12543;53.364;-1.504;2022-08-16T14:58:16;1.60;;;1.30;;
24409;SDS011;12543;53.364;-1.504;2022-08-16T15:01:00;1.88;;;1.38;;
24409;SDS011;12543;53.364;-1.504;2022-08-16T15:03:28;1.77;;;1.25;;
24409;SDS011;12543;53.364;-1.504;2022-08-16T15:05:58;1.25;;;1.13;;
24409;SDS011;12543;53.364;-1.504;2022-08-16T15:08:27;1.45;;;1.05;;
24409;SDS011;12543;53.364;-1.504;2022-08-16T15:11:02;1.90;;;1.23;;
24409;SDS011;12543;53.364;-1.504;2022-08-16T15:13:29;0.95;;;0.93;;
24409;SDS011;12543;53.364;-1.504;2022-08-16T15:15:56;1.10;;;1.00;;
24409;SDS011;12543;53.364;-1.504;2022-08-16T15:18:28;2.05;;;1.17;;
24409;SDS011;12543;53.364;-1.504;2022-08-16T15:20:58;1.23;;;1.13;;
24409;SDS011;12543;53.364;-1.504;2022-08-16T15:23:29;1.23;;;1.10;;
24409;SDS011;12543;53.364;-1.504;2022-08-16T15:25:59;1.40;;;1.13;;
24409;SDS011;12543;53.364;-1.504;2022-08-16T15:28:32;1.13;;;1.00;;
24409;SDS011;12543;53.364;-1.504;2022-08-16T15:31:05;1.17;;;1.08;;
24409;SDS011;12543;53.364;-1.504;2022-08-16T15:33:37;1.27;;;0.90;;
24409;SDS011;12543;53.364;-1.504;2022-08-16T15:36:14;1.23;;;1.13;;
24409;SDS011;12543;53.364;-1.504;2022-08-16T15:38:45;1.13;;;0.98;;
24409;SDS011;12543;53.364;-1.504;2022-08-16T15:44:12;1.00;;;1.00;;
24409;SDS011;12543;53.364;-1.504;2022-08-16T15:46:48;0.90;;;0.90;;
24409;SDS011;12543;53.364;-1.504;2022-08-16T15:49:28;1.88;;;1.10;;
24409;SDS011;12543;53.364;-1.504;2022-08-16T15:52:18;1.38;;;1.10;;
24409;SDS011;12543;53.364;-1.504;2022-08-16T15:55:05;1.95;;;1.15;;
24409;SDS011;12543;53.364;-1.504;2022-08-16T15:57:54;1.83;;;1.08;;